createdAt,value
2022-09-10T00:00:58.522Z,5.97
2022-09-10T00:03:03.118Z,5.13
2022-09-10T00:05:10.080Z,6.53
2022-09-10T00:07:15.063Z,7.13
2022-09-10T00:09:18.964Z,5.35
2022-09-10T00:11:22.402Z,6.82
2022-09-10T00:13:26.150Z,6.85
2022-09-10T00:15:29.747Z,6.22
2022-09-10T00:17:33.872Z,6.15
2022-09-10T00:19:37.588Z,7.53
2022-09-10T00:21:41.397Z,5.75
2022-09-10T00:23:46.833Z,6.30
2022-09-10T00:25:52.263Z,6.93
2022-09-10T00:27:55.717Z,5.53
2022-09-10T00:30:00.557Z,6.15
2022-09-10T00:32:04.804Z,6.70
2022-09-10T00:34:09.311Z,6.75
2022-09-10T00:36:17.084Z,5.65
2022-09-10T00:38:21.276Z,6.47
2022-09-10T00:40:26.843Z,5.15
2022-09-10T00:42:30.852Z,6.00
2022-09-10T00:44:57.594Z,6.60
2022-09-10T00:47:01.725Z,5.53
2022-09-10T00:49:11.626Z,5.47
2022-09-10T00:51:15.512Z,5.57
2022-09-10T00:53:23.331Z,6.38
2022-09-10T00:55:29.626Z,5.28
2022-09-10T00:57:33.688Z,5.80
2022-09-10T00:59:37.800Z,5.45
2022-09-10T01:01:42.275Z,5.57
2022-09-10T01:03:47.806Z,5.18
2022-09-10T01:05:52.682Z,5.80
2022-09-10T01:07:57.138Z,5.90
2022-09-10T01:10:03.550Z,5.55
2022-09-10T01:12:22.389Z,5.05
2022-09-10T01:14:45.486Z,4.97
2022-09-10T01:16:59.382Z,5.32
2022-09-10T01:19:18.793Z,5.05
2022-09-10T01:21:26.071Z,5.78
2022-09-10T01:24:03.005Z,4.80
2022-09-10T01:26:20.177Z,4.85
2022-09-10T01:28:31.802Z,4.78
2022-09-10T01:30:40.047Z,5.70
2022-09-10T01:32:53.789Z,5.43
2022-09-10T01:35:06.979Z,4.80
2022-09-10T01:37:21.723Z,5.32
2022-09-10T01:39:27.375Z,5.65
2022-09-10T01:41:32.289Z,4.65
2022-09-10T01:43:37.905Z,6.00
2022-09-10T01:45:52.592Z,6.05
2022-09-10T01:48:10.257Z,4.93
2022-09-10T01:50:26.597Z,4.82
2022-09-10T01:52:42.379Z,4.40
2022-09-10T01:55:00.394Z,4.80
2022-09-10T01:57:16.361Z,4.63
2022-09-10T01:59:28.987Z,4.50
2022-09-10T02:01:39.775Z,5.15
2022-09-10T02:03:47.901Z,4.72
2022-09-10T02:05:54.447Z,4.78
2022-09-10T02:08:02.020Z,4.07
2022-09-10T02:10:09.469Z,4.80
2022-09-10T02:12:21.128Z,5.30
2022-09-10T02:16:58.823Z,4.68
2022-09-10T02:19:03.722Z,4.90
2022-09-10T02:21:08.299Z,4.50
2022-09-10T02:23:13.498Z,4.57
2022-09-10T02:25:17.507Z,4.50
2022-09-10T02:27:20.804Z,5.13
2022-09-10T02:29:24.676Z,4.05
2022-09-10T02:31:29.835Z,4.45
2022-09-10T02:33:33.108Z,4.38
2022-09-10T02:35:37.805Z,4.25
2022-09-10T02:37:43.277Z,4.70
2022-09-10T02:39:47.853Z,4.35
2022-09-10T02:41:51.424Z,4.78
2022-09-10T02:43:54.702Z,4.20
2022-09-10T02:45:58.362Z,4.80
2022-09-10T02:48:04.429Z,4.20
2022-09-10T02:50:10.046Z,6.07
2022-09-10T02:52:13.460Z,5.75
2022-09-10T02:54:16.789Z,3.90
2022-09-10T02:56:20.717Z,4.57
2022-09-10T02:58:23.934Z,4.18
2022-09-10T03:00:27.375Z,3.80
2022-09-10T03:02:30.825Z,3.65
2022-09-10T03:04:35.467Z,4.32
2022-09-10T03:06:40.275Z,4.13
2022-09-10T03:08:43.608Z,4.38
2022-09-10T03:10:46.870Z,5.03
2022-09-10T03:12:50.264Z,4.20
2022-09-10T03:14:53.551Z,4.15
2022-09-10T03:17:00.317Z,4.50
2022-09-10T03:19:03.680Z,4.15
2022-09-10T03:21:15.000Z,4.10
2022-09-10T03:23:18.298Z,3.97
2022-09-10T03:25:22.899Z,3.92
2022-09-10T03:27:26.345Z,3.67
2022-09-10T03:29:31.185Z,4.28
2022-09-10T03:31:36.147Z,4.05
2022-09-10T03:33:39.958Z,4.20
2022-09-10T03:35:43.932Z,4.10
2022-09-10T03:37:49.215Z,3.85
2022-09-10T03:39:53.201Z,4.43
2022-09-10T03:41:56.568Z,3.75
2022-09-10T03:43:59.850Z,3.63
2022-09-10T03:46:03.778Z,4.05
2022-09-10T03:48:07.083Z,4.18
2022-09-10T03:50:10.894Z,4.25
2022-09-10T03:52:14.376Z,4.75
2022-09-10T03:54:20.900Z,5.35
2022-09-10T03:56:24.173Z,4.75
2022-09-10T03:58:28.769Z,4.57
2022-09-10T04:00:32.004Z,4.35
2022-09-10T04:02:36.861Z,4.50
2022-09-10T04:04:40.071Z,4.45
2022-09-10T04:06:45.550Z,4.90
2022-09-10T04:08:52.152Z,4.53
2022-09-10T04:11:03.284Z,4.15
2022-09-10T04:13:07.168Z,4.60
2022-09-10T04:15:13.422Z,4.32
2022-09-10T04:17:18.122Z,4.78
2022-09-10T04:19:22.030Z,4.13
2022-09-10T04:21:26.436Z,4.22
2022-09-10T04:23:30.343Z,4.47
2022-09-10T04:25:33.677Z,3.88
2022-09-10T04:27:38.729Z,4.20
2022-09-10T04:29:43.126Z,4.88
2022-09-10T04:31:46.925Z,4.65
2022-09-10T04:33:53.367Z,3.55
2022-09-10T04:36:00.581Z,4.03
2022-09-10T04:38:04.095Z,5.05
2022-09-10T04:40:09.427Z,4.68
2022-09-10T04:42:15.517Z,4.18
2022-09-10T04:44:20.443Z,4.03
2022-09-10T04:46:24.138Z,4.32
2022-09-10T04:48:29.654Z,4.10
2022-09-10T04:50:32.833Z,4.03
2022-09-10T04:52:53.229Z,3.63
2022-09-10T04:54:56.742Z,3.95
2022-09-10T04:57:01.328Z,3.65
2022-09-10T04:59:05.250Z,3.40
2022-09-10T05:01:14.060Z,3.45
2022-09-10T05:03:19.766Z,3.70
2022-09-10T05:05:23.502Z,3.88
2022-09-10T05:07:26.906Z,3.90
2022-09-10T05:09:31.488Z,3.65
2022-09-10T05:11:36.905Z,3.75
2022-09-10T05:13:40.616Z,4.20
2022-09-10T05:15:44.081Z,3.85
2022-09-10T05:17:49.399Z,3.83
2022-09-10T05:19:52.593Z,3.63
2022-09-10T05:21:56.571Z,3.88
2022-09-10T05:24:00.803Z,3.95
2022-09-10T05:26:04.095Z,3.92
2022-09-10T05:28:07.511Z,4.00
2022-09-10T05:30:11.871Z,4.00
2022-09-10T05:32:15.322Z,3.33
2022-09-10T05:34:20.601Z,4.05
2022-09-10T05:36:24.413Z,3.70
2022-09-10T05:38:27.799Z,4.03
2022-09-10T05:40:31.640Z,3.80
2022-09-10T05:42:35.738Z,4.07
2022-09-10T05:44:39.544Z,3.80
2022-09-10T05:46:42.993Z,4.00
2022-09-10T05:48:49.226Z,3.60
2022-09-10T05:50:55.505Z,3.35
2022-09-10T05:52:58.736Z,4.00
2022-09-10T05:55:03.488Z,3.80
2022-09-10T05:57:07.179Z,3.25
2022-09-10T05:59:12.045Z,3.58
2022-09-10T06:01:18.764Z,3.58
2022-09-10T06:03:22.425Z,4.78
2022-09-10T06:05:26.728Z,3.85
2022-09-10T06:07:32.322Z,3.63
2022-09-10T06:09:35.515Z,3.70
2022-09-10T06:11:43.399Z,3.40
2022-09-10T06:13:47.416Z,3.63
2022-09-10T06:15:50.654Z,3.70
2022-09-10T06:17:58.012Z,3.65
2022-09-10T06:20:01.482Z,3.22
2022-09-10T06:22:11.136Z,3.65
2022-09-10T06:24:18.872Z,3.35
2022-09-10T06:26:22.825Z,3.88
2022-09-10T06:28:29.710Z,3.60
2022-09-10T06:30:32.913Z,3.33
2022-09-10T06:32:36.413Z,3.67
2022-09-10T06:34:39.930Z,4.63
2022-09-10T06:36:45.780Z,5.68
2022-09-10T06:38:49.666Z,8.95
2022-09-10T06:40:55.575Z,14.90
2022-09-10T06:43:02.627Z,14.07
2022-09-10T06:45:29.176Z,10.70
2022-09-10T06:50:20.311Z,13.55
2022-09-10T06:52:25.046Z,16.15
2022-09-10T06:54:35.526Z,16.38
2022-09-10T06:56:54.702Z,18.50
2022-09-10T06:59:02.184Z,18.75
2022-09-10T07:01:14.858Z,19.35
2022-09-10T07:03:23.339Z,21.45
2022-09-10T07:05:27.883Z,20.83
2022-09-10T07:07:31.487Z,17.95
2022-09-10T07:09:35.030Z,17.55
2022-09-10T07:11:41.574Z,15.65
2022-09-10T07:13:51.899Z,15.07
2022-09-10T07:15:56.872Z,16.45
2022-09-10T07:18:00.118Z,15.05
2022-09-10T07:20:04.440Z,15.30
2022-09-10T07:22:21.777Z,18.35
2022-09-10T07:24:25.704Z,13.27
2022-09-10T07:26:57.855Z,13.25
2022-09-10T07:29:03.446Z,12.07
2022-09-10T07:31:13.826Z,12.43
2022-09-10T07:33:18.255Z,11.07
2022-09-10T07:35:22.044Z,10.48
2022-09-10T07:37:26.892Z,10.57
2022-09-10T07:39:31.899Z,10.40
2022-09-10T07:41:36.401Z,9.90
2022-09-10T07:43:44.979Z,8.38
2022-09-10T07:45:51.264Z,8.35
2022-09-10T07:47:55.040Z,8.30
2022-09-10T07:50:00.143Z,7.50
2022-09-10T07:52:05.146Z,6.75
2022-09-10T07:54:17.448Z,6.38
2022-09-10T07:56:27.542Z,6.25
2022-09-10T07:58:32.513Z,6.07
2022-09-10T08:00:36.831Z,4.68
2022-09-10T08:02:46.747Z,5.10
2022-09-10T08:04:54.738Z,6.15
2022-09-10T08:06:59.447Z,6.13
2022-09-10T08:09:07.381Z,8.75
2022-09-10T08:11:16.803Z,11.88
2022-09-10T08:13:22.865Z,12.88
2022-09-10T08:15:26.736Z,9.20
2022-09-10T08:17:31.403Z,14.55
2022-09-10T08:19:37.178Z,10.85
2022-09-10T08:21:41.137Z,9.48
2022-09-10T08:23:49.507Z,8.80
2022-09-10T08:25:53.546Z,10.32
2022-09-10T08:27:58.131Z,8.07
2022-09-10T08:30:01.750Z,8.68
2022-09-10T08:32:06.462Z,7.50
2022-09-10T08:34:14.171Z,7.22
2022-09-10T08:36:24.342Z,4.68
2022-09-10T08:38:31.870Z,4.88
2022-09-10T08:40:38.883Z,4.63
2022-09-10T08:42:46.971Z,4.53
2022-09-10T08:44:56.638Z,5.28
2022-09-10T08:47:26.542Z,4.55
2022-09-10T08:49:38.506Z,4.82
2022-09-10T08:51:50.675Z,5.78
2022-09-10T08:54:00.014Z,5.25
2022-09-10T08:56:06.635Z,4.20
2022-09-10T08:58:19.328Z,4.90
2022-09-10T09:00:26.608Z,5.07
2022-09-10T09:02:48.994Z,5.07
2022-09-10T09:05:00.580Z,4.57
2022-09-10T09:07:14.467Z,5.07
2022-09-10T09:09:20.506Z,4.63
2022-09-10T09:11:34.536Z,5.30
2022-09-10T09:13:52.735Z,4.78
2022-09-10T09:16:07.603Z,4.43
2022-09-10T09:18:23.056Z,4.50
2022-09-10T09:20:39.307Z,4.82
2022-09-10T09:22:52.629Z,3.58
2022-09-10T09:25:10.055Z,2.00
2022-09-10T09:27:17.744Z,2.50
2022-09-10T09:29:28.727Z,2.00
2022-09-10T09:31:40.787Z,4.55
2022-09-10T09:33:48.270Z,2.47
2022-09-10T09:35:54.965Z,2.05
2022-09-10T09:38:16.759Z,1.80
2022-09-10T09:40:33.814Z,1.65
2022-09-10T09:42:46.635Z,1.98
2022-09-10T09:44:57.527Z,2.33
2022-09-10T09:47:03.260Z,2.15
2022-09-10T09:49:16.106Z,1.95
2022-09-10T09:51:22.213Z,1.92
2022-09-10T09:53:29.414Z,1.50
2022-09-10T09:55:37.265Z,2.20
2022-09-10T09:57:43.046Z,1.55
2022-09-10T09:59:46.941Z,1.80
2022-09-10T10:01:51.973Z,1.50
2022-09-10T10:04:01.963Z,4.10
2022-09-10T10:06:08.196Z,14.75
2022-09-10T10:08:31.543Z,1.80
2022-09-10T10:10:35.545Z,1.95
2022-09-10T10:12:49.715Z,2.15
2022-09-10T10:14:53.509Z,1.95
2022-09-10T10:17:00.544Z,1.70
2022-09-10T10:19:05.437Z,2.38
2022-09-10T10:21:17.576Z,1.63
2022-09-10T10:23:36.767Z,2.00
2022-09-10T10:25:41.593Z,1.70
2022-09-10T10:27:47.947Z,1.50
2022-09-10T10:29:57.318Z,2.55
2022-09-10T10:32:05.465Z,1.58
2022-09-10T10:34:29.822Z,1.85
2022-09-10T10:36:53.538Z,2.20
2022-09-10T10:39:09.259Z,1.80
2022-09-10T10:41:47.259Z,1.63
2022-09-10T10:44:01.679Z,2.58
2022-09-10T10:46:11.202Z,1.90
2022-09-10T10:48:23.931Z,1.38
2022-09-10T10:50:35.003Z,1.85
2022-09-10T10:52:47.531Z,3.08
2022-09-10T10:55:07.805Z,5.88
2022-09-10T10:57:24.597Z,1.77
2022-09-10T10:59:45.410Z,1.70
2022-09-10T11:01:54.659Z,1.50
2022-09-10T11:04:09.049Z,2.35
2022-09-10T11:06:16.253Z,1.90
2022-09-10T11:08:36.086Z,2.03
2022-09-10T11:10:45.597Z,1.80
2022-09-10T11:12:56.318Z,1.80
2022-09-10T11:17:59.999Z,1.90
2022-09-10T11:22:53.585Z,1.75
2022-09-10T11:25:04.907Z,1.88
2022-09-10T11:27:15.996Z,2.13
2022-09-10T11:29:42.549Z,1.83
2022-09-10T11:31:50.638Z,2.28
2022-09-10T11:34:04.376Z,1.75
2022-09-10T11:36:17.076Z,2.13
2022-09-10T11:38:26.287Z,3.10
2022-09-10T11:40:37.859Z,2.10
2022-09-10T11:42:59.037Z,2.35
2022-09-10T11:45:10.939Z,1.42
2022-09-10T11:47:19.510Z,2.70
2022-09-10T11:49:26.721Z,1.83
2022-09-10T11:51:35.345Z,1.60
2022-09-10T11:53:39.139Z,1.95
2022-09-10T11:55:54.607Z,2.13
2022-09-10T11:58:07.710Z,1.70
2022-09-10T12:00:17.344Z,1.67
2022-09-10T12:02:57.509Z,1.95
2022-09-10T12:05:13.014Z,2.05
2022-09-10T12:07:30.329Z,2.08
2022-09-10T12:09:42.465Z,2.03
2022-09-10T12:11:53.599Z,1.33
2022-09-10T12:13:59.180Z,1.92
2022-09-10T12:16:10.726Z,1.92
2022-09-10T12:18:18.674Z,1.58
2022-09-10T12:20:29.493Z,1.65
2022-09-10T12:22:37.222Z,1.80
2022-09-10T12:24:41.174Z,1.50
2022-09-10T12:26:46.866Z,1.80
2022-09-10T12:29:05.039Z,1.80
2022-09-10T12:31:09.099Z,2.08
2022-09-10T12:33:37.967Z,1.70
2022-09-10T12:35:47.075Z,1.70
2022-09-10T12:37:50.912Z,2.35
2022-09-10T12:40:32.686Z,1.85
2022-09-10T12:42:37.078Z,1.48
2022-09-10T12:44:51.146Z,1.75
2022-09-10T12:47:28.165Z,1.92
2022-09-10T12:49:31.759Z,1.73
2022-09-10T12:51:47.269Z,1.80
2022-09-10T12:54:15.135Z,1.45
2022-09-10T12:57:00.902Z,1.85
2022-09-10T12:59:19.538Z,1.80
2022-09-10T13:01:40.574Z,2.10
2022-09-10T13:03:54.807Z,2.03
2022-09-10T13:06:03.422Z,1.88
2022-09-10T13:08:18.129Z,1.98
2022-09-10T13:10:24.638Z,1.90
2022-09-10T13:12:28.840Z,1.80
2022-09-10T13:14:36.285Z,1.73
2022-09-10T13:16:43.561Z,1.63
2022-09-10T13:18:48.482Z,1.95
2022-09-10T13:20:52.079Z,1.77
2022-09-10T13:22:58.521Z,1.52
2022-09-10T13:25:07.523Z,2.03
2022-09-10T13:27:22.805Z,1.70
2022-09-10T13:29:34.074Z,2.20
2022-09-10T13:31:43.756Z,1.88
2022-09-10T13:34:21.166Z,1.80
2022-09-10T13:36:34.533Z,1.77
2022-09-10T13:41:23.961Z,1.73
2022-09-10T13:43:48.969Z,1.65
2022-09-10T13:45:55.677Z,2.17
2022-09-10T13:48:04.027Z,2.05
2022-09-10T13:50:15.687Z,2.00
2022-09-10T13:52:23.814Z,1.83
2022-09-10T13:54:35.791Z,1.70
2022-09-10T13:56:44.926Z,2.17
2022-09-10T13:58:52.572Z,1.85
2022-09-10T14:00:58.384Z,2.22
2022-09-10T14:03:03.364Z,2.10
2022-09-10T14:05:24.512Z,2.53
2022-09-10T14:07:29.979Z,2.42
2022-09-10T14:09:34.962Z,2.03
2022-09-10T14:11:42.742Z,2.05
2022-09-10T14:13:52.077Z,2.20
2022-09-10T14:16:01.660Z,1.90
2022-09-10T14:18:06.960Z,2.58
2022-09-10T14:20:19.662Z,2.10
2022-09-10T14:22:26.098Z,2.10
2022-09-10T14:24:32.011Z,2.38
2022-09-10T14:26:35.846Z,2.10
2022-09-10T14:28:50.876Z,2.30
2022-09-10T14:31:20.726Z,2.35
2022-09-10T14:33:33.005Z,1.83
2022-09-10T14:35:40.848Z,2.75
2022-09-10T14:37:44.714Z,2.20
2022-09-10T14:39:49.243Z,2.22
2022-09-10T14:42:11.665Z,1.77
2022-09-10T14:44:29.875Z,2.30
2022-09-10T14:46:54.372Z,2.45
2022-09-10T14:49:11.491Z,2.78
2022-09-10T14:51:17.751Z,1.90
2022-09-10T14:53:21.227Z,2.28
2022-09-10T14:55:27.212Z,1.95
2022-09-10T14:57:30.775Z,2.38
2022-09-10T14:59:38.785Z,2.20
2022-09-10T15:01:43.195Z,2.45
2022-09-10T15:03:46.887Z,2.42
2022-09-10T15:05:52.035Z,2.30
2022-09-10T15:07:55.621Z,2.72
2022-09-10T15:09:59.278Z,2.15
2022-09-10T15:12:07.249Z,2.20
2022-09-10T15:14:21.173Z,2.10
2022-09-10T15:16:24.988Z,2.38
2022-09-10T15:18:28.520Z,2.25
2022-09-10T15:20:32.044Z,2.90
2022-09-10T15:22:37.112Z,2.25
2022-09-10T15:25:05.572Z,2.25
2022-09-10T15:27:05.120Z,3.47
2022-09-10T15:29:08.918Z,2.40
2022-09-10T15:31:12.849Z,2.10
2022-09-10T15:33:16.859Z,3.05
2022-09-10T15:35:20.292Z,2.63
2022-09-10T15:37:24.537Z,2.30
2022-09-10T15:39:30.168Z,2.90
2022-09-10T15:41:34.693Z,2.58
2022-09-10T15:43:41.477Z,2.38
2022-09-10T15:45:45.270Z,1.90
2022-09-10T15:47:48.832Z,3.03
2022-09-10T15:49:53.818Z,2.55
2022-09-10T15:51:57.378Z,3.03
2022-09-10T15:54:04.926Z,2.53
2022-09-10T15:56:11.974Z,2.60
2022-09-10T15:58:15.883Z,2.65
2022-09-10T16:00:20.300Z,3.03
2022-09-10T16:02:23.992Z,2.15
2022-09-10T16:04:30.613Z,2.47
2022-09-10T16:06:38.303Z,2.55
2022-09-10T16:08:42.058Z,2.20
2022-09-10T16:10:45.799Z,2.47
2022-09-10T16:12:50.687Z,2.75
2022-09-10T16:14:54.877Z,2.33
2022-09-10T16:16:59.022Z,2.45
2022-09-10T16:19:02.780Z,2.55
2022-09-10T16:21:12.202Z,2.72
2022-09-10T16:23:17.393Z,2.40
2022-09-10T16:25:21.587Z,2.40
2022-09-10T16:27:25.168Z,2.00
2022-09-10T16:29:30.337Z,2.42
2022-09-10T16:31:35.579Z,2.42
2022-09-10T16:33:39.183Z,2.20
2022-09-10T16:35:42.972Z,2.10
2022-09-10T16:37:46.359Z,2.55
2022-09-10T16:39:50.205Z,2.70
2022-09-10T16:41:53.797Z,2.25
2022-09-10T16:43:59.902Z,2.58
2022-09-10T16:46:05.680Z,2.25
2022-09-10T16:48:09.778Z,2.80
2022-09-10T16:50:17.296Z,2.50
2022-09-10T16:52:20.905Z,2.40
2022-09-10T16:54:26.871Z,2.30
2022-09-10T16:56:33.781Z,2.22
2022-09-10T16:58:39.061Z,2.17
2022-09-10T17:00:42.997Z,2.67
2022-09-10T17:02:48.146Z,2.33
2022-09-10T17:04:52.797Z,2.05
2022-09-10T17:06:56.598Z,2.55
2022-09-10T17:09:01.996Z,1.98
2022-09-10T17:11:05.635Z,2.67
2022-09-10T17:13:11.508Z,2.30
2022-09-10T17:15:15.572Z,2.72
2022-09-10T17:17:19.179Z,2.25
2022-09-10T17:19:26.677Z,2.65
2022-09-10T17:21:32.710Z,2.22
2022-09-10T17:23:36.555Z,1.95
2022-09-10T17:25:40.964Z,2.17
2022-09-10T17:27:44.538Z,3.55
2022-09-10T17:29:48.157Z,2.05
2022-09-10T17:31:52.867Z,2.33
2022-09-10T17:33:57.178Z,2.33
2022-09-10T17:36:04.382Z,2.03
2022-09-10T17:38:08.374Z,2.17
2022-09-10T17:40:13.176Z,1.90
2022-09-10T17:42:17.152Z,4.07
2022-09-10T17:44:21.355Z,2.83
2022-09-10T17:46:25.112Z,2.40
2022-09-10T17:48:30.566Z,2.78
2022-09-10T17:50:34.731Z,2.30
2022-09-10T17:52:40.948Z,2.08
2022-09-10T17:54:44.786Z,1.95
2022-09-10T17:56:48.583Z,1.95
2022-09-10T17:58:57.738Z,2.38
2022-09-10T18:01:02.637Z,2.92
2022-09-10T18:03:10.015Z,6.65
2022-09-10T18:05:13.811Z,4.90
2022-09-10T18:07:17.418Z,3.55
2022-09-10T18:09:23.801Z,2.50
2022-09-10T18:11:30.252Z,2.45
2022-09-10T18:13:34.657Z,2.22
2022-09-10T18:15:42.389Z,2.50
2022-09-10T18:17:46.076Z,2.70
2022-09-10T18:19:50.458Z,2.47
2022-09-10T18:21:54.088Z,2.63
2022-09-10T18:24:00.534Z,2.85
2022-09-10T18:26:14.886Z,2.55
2022-09-10T18:28:19.303Z,2.38
2022-09-10T18:30:22.836Z,2.95
2022-09-10T18:32:26.891Z,2.50
2022-09-10T18:34:32.294Z,2.63
2022-09-10T18:36:36.037Z,2.83
2022-09-10T18:38:39.677Z,3.42
2022-09-10T18:40:43.378Z,3.72
2022-09-10T18:42:48.458Z,3.30
2022-09-10T18:44:52.280Z,3.00
2022-09-10T18:46:56.608Z,2.78
2022-09-10T18:49:01.333Z,2.80
2022-09-10T18:51:07.185Z,3.35
2022-09-10T18:53:10.966Z,2.70
2022-09-10T18:55:14.783Z,3.95
2022-09-10T18:57:18.768Z,3.15
2022-09-10T18:59:25.476Z,7.82
2022-09-10T19:01:31.336Z,12.55
2022-09-10T19:03:39.333Z,4.00
2022-09-10T19:05:43.027Z,33.50
2022-09-10T19:07:46.894Z,14.35
2022-09-10T19:09:51.158Z,4.22
2022-09-10T19:11:56.918Z,4.22
2022-09-10T19:14:02.466Z,31.48
2022-09-10T19:16:08.093Z,4.50
2022-09-10T19:18:12.001Z,4.00
2022-09-10T19:20:15.890Z,7.50
2022-09-10T19:22:19.696Z,5.38
2022-09-10T19:24:44.032Z,16.98
2022-09-10T19:26:51.160Z,6.15
2022-09-10T19:28:58.958Z,8.43
2022-09-10T19:31:05.209Z,10.70
2022-09-10T19:33:10.277Z,4.35
2022-09-10T19:35:14.752Z,4.22
2022-09-10T19:37:19.684Z,4.85
2022-09-10T19:39:23.435Z,4.10
2022-09-10T19:41:27.398Z,4.10
2022-09-10T19:43:31.220Z,4.18
2022-09-10T19:45:35.935Z,4.25
2022-09-10T19:47:40.465Z,4.15
2022-09-10T19:49:45.445Z,4.15
2022-09-10T19:51:49.218Z,4.95
2022-09-10T19:53:52.870Z,4.22
2022-09-10T19:55:56.538Z,4.13
2022-09-10T19:58:00.287Z,4.90
2022-09-10T20:00:04.402Z,3.92
2022-09-10T20:02:15.239Z,4.68
2022-09-10T20:04:19.137Z,4.38
2022-09-10T20:06:25.625Z,4.50
2022-09-10T20:08:29.368Z,4.18
2022-09-10T20:10:33.842Z,5.00
2022-09-10T20:12:37.574Z,4.10
2022-09-10T20:14:41.253Z,4.97
2022-09-10T20:16:46.835Z,4.10
2022-09-10T20:18:50.398Z,4.70
2022-09-10T20:20:54.209Z,4.30
2022-09-10T20:23:01.670Z,4.20
2022-09-10T20:25:06.158Z,4.65
2022-09-10T20:27:09.996Z,4.45
2022-09-10T20:29:15.699Z,3.75
2022-09-10T20:31:19.726Z,5.00
2022-09-10T20:33:23.572Z,4.97
2022-09-10T20:35:27.226Z,4.40
2022-09-10T20:37:31.237Z,4.50
2022-09-10T20:39:36.653Z,3.85
2022-09-10T20:41:40.830Z,3.70
2022-09-10T20:43:44.637Z,4.13
2022-09-10T20:45:49.570Z,4.00
2022-09-10T20:47:53.183Z,3.72
2022-09-10T20:49:57.198Z,4.20
2022-09-10T20:52:00.769Z,4.50
2022-09-10T20:54:05.848Z,4.22
2022-09-10T20:56:13.199Z,4.10
2022-09-10T20:58:17.978Z,4.00
2022-09-10T21:00:21.786Z,4.13
2022-09-10T21:02:26.465Z,4.10
2022-09-10T21:04:30.544Z,3.72
2022-09-10T21:06:35.828Z,4.72
2022-09-10T21:08:40.838Z,3.92
2022-09-10T21:10:44.888Z,4.13
2022-09-10T21:12:49.887Z,4.60
2022-09-10T21:14:54.123Z,4.13
2022-09-10T21:16:58.182Z,4.55
2022-09-10T21:19:03.167Z,4.70
2022-09-10T21:21:08.278Z,4.80
2022-09-10T21:23:11.956Z,4.07
2022-09-10T21:25:16.456Z,4.20
2022-09-10T21:27:20.555Z,4.10
2022-09-10T21:29:25.361Z,4.47
2022-09-10T21:31:30.356Z,4.35
2022-09-10T21:33:34.968Z,4.53
2022-09-10T21:35:39.178Z,5.25
2022-09-10T21:37:43.006Z,4.30
2022-09-10T21:39:46.883Z,5.28
2022-09-10T21:41:52.046Z,5.03
2022-09-10T21:43:56.101Z,4.97
2022-09-10T21:46:04.512Z,4.57
2022-09-10T21:48:08.074Z,4.50
2022-09-10T21:50:11.945Z,4.93
2022-09-10T21:52:15.732Z,4.93
2022-09-10T21:54:22.113Z,4.93
2022-09-10T21:56:27.966Z,4.95
2022-09-10T21:58:33.824Z,5.22
2022-09-10T22:00:37.575Z,5.15
2022-09-10T22:02:43.370Z,4.85
2022-09-10T22:04:47.072Z,37.05
2022-09-10T22:06:50.898Z,6.78
2022-09-10T22:08:58.574Z,4.75
2022-09-10T22:11:06.895Z,5.15
2022-09-10T22:13:11.802Z,5.05
2022-09-10T22:15:15.633Z,4.95
2022-09-10T22:17:19.989Z,4.75
2022-09-10T22:19:27.510Z,5.50
2022-09-10T22:21:31.727Z,5.68
2022-09-10T22:23:37.970Z,6.07
2022-09-10T22:25:41.938Z,7.50
2022-09-10T22:27:45.467Z,5.30
2022-09-10T22:29:49.419Z,6.70
2022-09-10T22:31:53.065Z,7.25
2022-09-10T22:33:58.840Z,6.68
2022-09-10T22:36:15.389Z,6.88
2022-09-10T22:38:19.736Z,51.45
2022-09-10T22:40:24.583Z,33.75
2022-09-10T22:42:28.301Z,7.43
2022-09-10T22:44:31.842Z,6.15
2022-09-10T22:46:36.923Z,7.40
2022-09-10T22:48:42.691Z,5.55
2022-09-10T22:50:47.298Z,5.93
2022-09-10T22:52:52.281Z,5.47
2022-09-10T22:54:55.969Z,5.82
2022-09-10T22:56:59.773Z,6.28
2022-09-10T22:59:04.098Z,5.97
2022-09-10T23:01:09.283Z,5.75
2022-09-10T23:03:13.453Z,5.95
2022-09-10T23:05:17.360Z,5.65
2022-09-10T23:07:21.991Z,6.22
2022-09-10T23:09:27.190Z,5.60
2022-09-10T23:11:32.042Z,5.38
2022-09-10T23:13:36.192Z,6.78
2022-09-10T23:15:40.109Z,6.57
2022-09-10T23:17:44.010Z,6.93
2022-09-10T23:19:48.299Z,7.60
2022-09-10T23:21:54.027Z,8.40
2022-09-10T23:23:59.821Z,8.05
2022-09-10T23:26:09.601Z,7.97
2022-09-10T23:28:13.052Z,8.20
2022-09-10T23:30:17.370Z,7.93
2022-09-10T23:32:20.926Z,7.57
2022-09-10T23:34:24.283Z,8.88
2022-09-10T23:36:28.952Z,8.38
2022-09-10T23:38:33.513Z,8.05
2022-09-10T23:40:37.264Z,8.43
2022-09-10T23:42:41.936Z,8.70
2022-09-10T23:44:45.347Z,7.82
2022-09-10T23:46:48.634Z,8.02
2022-09-10T23:48:52.455Z,8.10
2022-09-10T23:50:55.882Z,7.72
2022-09-10T23:52:59.722Z,8.35
2022-09-10T23:55:02.931Z,7.93
2022-09-10T23:57:06.569Z,8.63
2022-09-10T23:59:11.548Z,8.10
